createdAt,value
2024-04-08T00:00:08.271Z,508.00
2024-04-08T00:01:08.196Z,509.00
2024-04-08T00:02:08.210Z,510.00
2024-04-08T00:03:08.237Z,512.00
2024-04-08T00:04:08.256Z,514.00
2024-04-08T00:05:08.709Z,512.00
2024-04-08T00:06:08.213Z,510.00
2024-04-08T00:07:08.279Z,511.00
2024-04-08T00:08:08.258Z,510.00
2024-04-08T00:09:08.296Z,511.00
2024-04-08T00:10:08.338Z,510.00
2024-04-08T00:11:08.382Z,510.00
2024-04-08T00:12:08.414Z,510.00
2024-04-08T00:13:08.452Z,511.00
2024-04-08T00:14:08.492Z,512.00
2024-04-08T00:15:08.518Z,510.00
2024-04-08T00:16:08.577Z,508.00
2024-04-08T00:17:08.590Z,509.00
2024-04-08T00:18:08.637Z,506.00
2024-04-08T00:19:08.671Z,506.00
2024-04-08T00:20:08.720Z,506.00
2024-04-08T00:21:08.753Z,508.00
2024-04-08T00:22:08.785Z,509.00
2024-04-08T00:23:09.760Z,510.00
2024-04-08T00:24:08.868Z,509.00
2024-04-08T00:25:08.904Z,511.00
2024-04-08T00:26:08.960Z,510.00
2024-04-08T00:27:08.996Z,508.00
2024-04-08T00:28:09.016Z,510.00
2024-04-08T00:29:09.058Z,508.00
2024-04-08T00:30:09.092Z,508.00
2024-04-08T00:31:09.230Z,511.00
2024-04-08T00:32:09.158Z,511.00
2024-04-08T00:33:09.206Z,511.00
2024-04-08T00:34:09.247Z,513.00
2024-04-08T00:35:09.287Z,512.00
2024-04-08T00:36:09.328Z,511.00
2024-04-08T00:37:09.357Z,509.00
2024-04-08T00:38:09.391Z,509.00
2024-04-08T00:39:10.206Z,509.00
2024-04-08T00:40:09.482Z,509.00
2024-04-08T00:41:09.517Z,507.00
2024-04-08T00:42:09.563Z,506.00
2024-04-08T00:43:09.602Z,506.00
2024-04-08T00:44:09.639Z,506.00
2024-04-08T00:45:09.683Z,504.00
2024-04-08T00:46:09.737Z,505.00
2024-04-08T00:47:09.775Z,503.00
2024-04-08T00:48:09.810Z,503.00
2024-04-08T00:49:09.861Z,503.00
2024-04-08T00:50:09.952Z,504.00
2024-04-08T00:51:09.913Z,503.00
2024-04-08T00:52:09.967Z,505.00
2024-04-08T00:53:10.003Z,509.00
2024-04-08T00:54:10.037Z,510.00
2024-04-08T00:55:10.072Z,509.00
2024-04-08T00:56:10.111Z,510.00
2024-04-08T00:57:10.152Z,511.00
2024-04-08T00:58:10.196Z,512.00
2024-04-08T00:59:10.242Z,513.00
2024-04-08T01:00:10.272Z,515.00
2024-04-08T01:01:10.295Z,513.00
2024-04-08T01:02:10.342Z,511.00
2024-04-08T01:03:10.389Z,509.00
2024-04-08T01:04:10.427Z,508.00
2024-04-08T01:05:10.464Z,509.00
2024-04-08T01:06:10.491Z,509.00
2024-04-08T01:07:10.547Z,509.00
2024-04-08T01:08:10.573Z,510.00
2024-04-08T01:09:10.685Z,507.00
2024-04-08T01:10:10.656Z,508.00
2024-04-08T01:11:10.735Z,509.00
2024-04-08T01:12:10.721Z,512.00
2024-04-08T01:13:10.773Z,513.00
2024-04-08T01:14:10.811Z,512.00
2024-04-08T01:15:10.852Z,511.00
2024-04-08T01:16:10.892Z,512.00
2024-04-08T01:17:10.927Z,509.00
2024-04-08T01:18:11.050Z,511.00
2024-04-08T01:19:10.996Z,512.00
2024-04-08T01:20:11.250Z,513.00
2024-04-08T01:21:11.727Z,511.00
2024-04-08T01:22:11.124Z,513.00
2024-04-08T01:23:11.188Z,511.00
2024-04-08T01:24:11.177Z,512.00
2024-04-08T01:25:11.216Z,513.00
2024-04-08T01:26:11.256Z,513.00
2024-04-08T01:27:11.294Z,512.00
2024-04-08T01:28:11.323Z,511.00
2024-04-08T01:29:11.365Z,512.00
2024-04-08T01:30:11.417Z,514.00
2024-04-08T01:31:11.443Z,515.00
2024-04-08T01:32:11.509Z,514.00
2024-04-08T01:33:11.513Z,513.00
2024-04-08T01:34:11.574Z,513.00
2024-04-08T01:35:11.591Z,513.00
2024-04-08T01:36:11.639Z,510.00
2024-04-08T01:37:11.681Z,508.00
2024-04-08T01:38:11.798Z,511.00
2024-04-08T01:39:11.764Z,512.00
2024-04-08T01:40:11.802Z,511.00
2024-04-08T01:41:11.835Z,511.00
2024-04-08T01:42:11.870Z,511.00
2024-04-08T01:43:11.900Z,510.00
2024-04-08T01:44:11.936Z,510.00
2024-04-08T01:45:11.980Z,509.00
2024-04-08T01:46:12.392Z,508.00
2024-04-08T01:47:12.048Z,510.00
2024-04-08T01:48:12.082Z,510.00
2024-04-08T01:49:12.111Z,512.00
2024-04-08T01:50:12.162Z,514.00
2024-04-08T01:51:12.189Z,515.00
2024-04-08T01:52:12.264Z,515.00
2024-04-08T01:53:12.366Z,515.00
2024-04-08T01:54:12.275Z,518.00
2024-04-08T01:55:12.351Z,515.00
2024-04-08T01:56:12.364Z,516.00
2024-04-08T01:57:12.407Z,516.00
2024-04-08T01:58:12.407Z,516.00
2024-04-08T01:59:12.451Z,515.00
2024-04-08T02:00:12.512Z,515.00
2024-04-08T02:01:12.572Z,513.00
2024-04-08T02:02:12.579Z,511.00
2024-04-08T02:03:12.576Z,508.00
2024-04-08T02:04:12.623Z,507.00
2024-04-08T02:05:12.665Z,507.00
2024-04-08T02:06:12.709Z,508.00
2024-04-08T02:07:12.730Z,507.00
2024-04-08T02:08:12.772Z,509.00
2024-04-08T02:09:12.806Z,513.00
2024-04-08T02:10:12.842Z,513.00
2024-04-08T02:11:12.874Z,516.00
2024-04-08T02:12:12.897Z,515.00
2024-04-08T02:13:12.950Z,515.00
2024-04-08T02:14:13.034Z,513.00
2024-04-08T02:15:12.998Z,514.00
2024-04-08T02:16:13.094Z,513.00
2024-04-08T02:17:13.068Z,512.00
2024-04-08T02:18:13.253Z,513.00
2024-04-08T02:19:13.128Z,512.00
2024-04-08T02:20:13.146Z,509.00
2024-04-08T02:21:13.196Z,510.00
2024-04-08T02:22:13.210Z,511.00
2024-04-08T02:23:13.236Z,509.00
2024-04-08T02:24:13.350Z,511.00
2024-04-08T02:25:13.312Z,512.00
2024-04-08T02:26:13.327Z,513.00
2024-04-08T02:27:13.345Z,511.00
2024-04-08T02:28:13.397Z,510.00
2024-04-08T02:29:13.419Z,508.00
2024-04-08T02:30:13.451Z,510.00
2024-04-08T02:31:13.503Z,510.00
2024-04-08T02:32:13.536Z,510.00
2024-04-08T02:33:13.560Z,511.00
2024-04-08T02:34:13.596Z,510.00
2024-04-08T02:35:13.623Z,508.00
2024-04-08T02:36:13.674Z,507.00
2024-04-08T02:37:13.783Z,507.00
2024-04-08T02:38:13.789Z,504.00
2024-04-08T02:39:13.759Z,505.00
2024-04-08T02:40:13.800Z,505.00
2024-04-08T02:41:13.850Z,505.00
2024-04-08T02:42:13.886Z,506.00
2024-04-08T02:43:13.926Z,509.00
2024-04-08T02:44:13.944Z,511.00
2024-04-08T02:45:14.004Z,509.00
2024-04-08T02:46:14.020Z,511.00
2024-04-08T02:47:14.054Z,510.00
2024-04-08T02:48:14.084Z,510.00
2024-04-08T02:49:14.127Z,508.00
2024-04-08T02:50:14.170Z,508.00
2024-04-08T02:51:14.201Z,510.00
2024-04-08T02:52:14.324Z,511.00
2024-04-08T02:53:14.273Z,509.00
2024-04-08T02:54:14.313Z,509.00
2024-04-08T02:55:14.337Z,508.00
2024-04-08T02:56:14.447Z,507.00
2024-04-08T02:57:14.410Z,507.00
2024-04-08T02:58:14.457Z,507.00
2024-04-08T02:59:14.498Z,504.00
2024-04-08T03:00:14.528Z,504.00
2024-04-08T03:01:14.543Z,506.00
2024-04-08T03:02:14.588Z,505.00
2024-04-08T03:03:15.351Z,505.00
2024-04-08T03:04:14.654Z,506.00
2024-04-08T03:05:14.771Z,506.00
2024-04-08T03:06:14.723Z,507.00
2024-04-08T03:07:14.754Z,506.00
2024-04-08T03:08:14.784Z,507.00
2024-04-08T03:09:14.820Z,506.00
2024-04-08T03:10:14.857Z,507.00
2024-04-08T03:11:14.894Z,508.00
2024-04-08T03:12:14.921Z,509.00
2024-04-08T03:13:14.964Z,510.00
2024-04-08T03:14:15.765Z,508.00
2024-04-08T03:15:15.042Z,506.00
2024-04-08T03:16:15.060Z,505.00
2024-04-08T03:17:15.099Z,504.00
2024-04-08T03:18:15.164Z,503.00
2024-04-08T03:19:15.195Z,505.00
2024-04-08T03:20:15.200Z,504.00
2024-04-08T03:21:15.253Z,505.00
2024-04-08T03:22:15.279Z,508.00
2024-04-08T03:23:15.322Z,509.00
2024-04-08T03:24:15.350Z,507.00
2024-04-08T03:25:15.399Z,506.00
2024-04-08T03:26:15.428Z,506.00
2024-04-08T03:27:15.466Z,505.00
2024-04-08T03:28:15.510Z,505.00
2024-04-08T03:29:15.529Z,503.00
2024-04-08T03:30:15.580Z,501.00
2024-04-08T03:31:15.615Z,500.00
2024-04-08T03:32:15.634Z,499.00
2024-04-08T03:33:15.704Z,499.00
2024-04-08T03:34:15.700Z,501.00
2024-04-08T03:35:15.746Z,502.00
2024-04-08T03:36:15.775Z,504.00
2024-04-08T03:37:15.801Z,503.00
2024-04-08T03:38:15.838Z,502.00
2024-04-08T03:39:15.868Z,501.00
2024-04-08T03:40:15.902Z,501.00
2024-04-08T03:41:15.949Z,502.00
2024-04-08T03:42:15.979Z,503.00
2024-04-08T03:43:17.281Z,502.00
2024-04-08T03:44:16.017Z,503.00
2024-04-08T03:45:16.013Z,504.00
2024-04-08T03:46:16.016Z,506.00
2024-04-08T03:47:16.012Z,504.00
2024-04-08T03:48:16.048Z,502.00
2024-04-08T03:49:16.081Z,502.00
2024-04-08T03:50:16.015Z,503.00
2024-04-08T03:51:16.029Z,502.00
2024-04-08T03:52:16.025Z,502.00
2024-04-08T03:53:16.013Z,502.00
2024-04-08T03:54:16.024Z,502.00
2024-04-08T03:55:16.022Z,502.00
2024-04-08T03:56:16.024Z,505.00
2024-04-08T03:57:16.024Z,506.00
2024-04-08T03:58:16.291Z,509.00
2024-04-08T03:59:16.025Z,509.00
2024-04-08T04:00:16.025Z,509.00
2024-04-08T04:01:16.019Z,511.00
2024-04-08T04:02:16.021Z,512.00
2024-04-08T04:03:16.031Z,510.00
2024-04-08T04:04:16.048Z,511.00
2024-04-08T04:05:16.094Z,512.00
2024-04-08T04:06:16.039Z,513.00
2024-04-08T04:07:16.024Z,514.00
2024-04-08T04:08:16.028Z,511.00
2024-04-08T04:09:16.028Z,510.00
2024-04-08T04:10:16.030Z,512.00
2024-04-08T04:11:16.098Z,512.00
2024-04-08T04:12:16.111Z,510.00
2024-04-08T04:13:16.044Z,507.00
2024-04-08T04:14:16.038Z,504.00
2024-04-08T04:15:16.044Z,504.00
2024-04-08T04:16:23.713Z,488.00
2024-04-08T04:17:23.864Z,494.00
2024-04-08T04:18:23.866Z,496.00
2024-04-08T04:19:23.763Z,498.00
2024-04-08T04:20:23.803Z,500.00
2024-04-08T04:21:24.355Z,503.00
2024-04-08T04:22:23.779Z,504.00
2024-04-08T04:23:23.770Z,505.00
2024-04-08T04:24:23.790Z,504.00
2024-04-08T04:25:23.791Z,505.00
2024-04-08T04:26:24.329Z,505.00
2024-04-08T04:27:23.777Z,506.00
2024-04-08T04:28:23.790Z,505.00
2024-04-08T04:29:23.799Z,504.00
2024-04-08T04:30:23.790Z,502.00
2024-04-08T04:31:30.968Z,492.00
2024-04-08T04:32:31.035Z,496.00
2024-04-08T04:33:31.094Z,494.00
2024-04-08T04:34:31.102Z,493.00
2024-04-08T04:35:31.099Z,493.00
2024-04-08T04:36:31.095Z,495.00
2024-04-08T04:37:31.117Z,494.00
2024-04-08T04:38:31.109Z,494.00
2024-04-08T04:39:31.182Z,493.00
2024-04-08T04:40:31.104Z,495.00
2024-04-08T04:41:31.109Z,498.00
2024-04-08T04:42:31.099Z,500.00
2024-04-08T04:43:31.118Z,499.00
2024-04-08T04:44:31.090Z,499.00
2024-04-08T04:45:31.109Z,498.00
2024-04-08T04:46:31.104Z,497.00
2024-04-08T04:47:31.150Z,496.00
2024-04-08T04:48:31.107Z,495.00
2024-04-08T04:49:31.105Z,493.00
2024-04-08T04:50:31.107Z,494.00
2024-04-08T04:51:31.118Z,495.00
2024-04-08T04:52:31.095Z,496.00
2024-04-08T04:53:31.098Z,497.00
2024-04-08T04:54:33.389Z,499.00
2024-04-08T04:55:31.290Z,497.00
2024-04-08T04:56:32.094Z,498.00
2024-04-08T04:57:31.368Z,498.00
2024-04-08T04:58:31.416Z,500.00
2024-04-08T04:59:31.452Z,500.00
2024-04-08T05:00:31.660Z,498.00
2024-04-08T05:01:31.535Z,498.00
2024-04-08T05:02:31.572Z,495.00
2024-04-08T05:03:31.624Z,496.00
2024-04-08T05:04:31.707Z,495.00
2024-04-08T05:05:31.714Z,496.00
2024-04-08T05:06:31.753Z,496.00
2024-04-08T05:07:31.850Z,496.00
2024-04-08T05:08:31.834Z,496.00
2024-04-08T05:09:31.860Z,496.00
2024-04-08T05:10:31.908Z,497.00
2024-04-08T05:11:31.943Z,498.00
2024-04-08T05:12:31.982Z,500.00
2024-04-08T05:13:32.116Z,498.00
2024-04-08T05:14:32.067Z,497.00
2024-04-08T05:15:32.124Z,497.00
2024-04-08T05:16:32.170Z,497.00
2024-04-08T05:17:32.232Z,499.00
2024-04-08T05:18:32.238Z,501.00
2024-04-08T05:19:32.279Z,505.00
2024-04-08T05:20:32.340Z,514.00
2024-04-08T05:21:32.431Z,522.00
2024-04-08T05:22:32.404Z,534.00
2024-04-08T05:23:32.446Z,551.00
2024-04-08T05:24:32.492Z,567.00
2024-04-08T05:25:32.529Z,577.00
2024-04-08T05:26:32.579Z,637.00
2024-04-08T05:27:32.587Z,641.00
2024-04-08T05:28:32.597Z,660.00
2024-04-08T05:29:34.235Z,712.00
2024-04-08T05:30:32.631Z,732.00
2024-04-08T05:31:32.626Z,793.00
2024-04-08T05:32:32.635Z,815.00
2024-04-08T05:33:32.636Z,838.00
2024-04-08T05:34:32.634Z,885.00
2024-04-08T05:35:32.625Z,909.00
2024-04-08T05:36:35.062Z,939.00
2024-04-08T05:37:33.042Z,991.00
2024-04-08T05:38:32.846Z,1012.00
2024-04-08T05:39:32.945Z,1027.00
2024-04-08T05:40:33.112Z,1047.00
2024-04-08T05:41:33.018Z,1062.00
2024-04-08T05:42:33.076Z,1097.00
2024-04-08T05:43:34.105Z,1129.00
2024-04-08T05:44:34.118Z,1152.00
2024-04-08T05:45:33.264Z,1178.00
2024-04-08T05:46:33.388Z,1196.00
2024-04-08T05:47:33.439Z,1213.00
2024-04-08T05:48:33.455Z,1253.00
2024-04-08T05:49:33.514Z,1275.00
2024-04-08T05:50:33.586Z,1297.00
2024-04-08T05:51:33.684Z,1331.00
2024-04-08T05:52:33.739Z,1364.00
2024-04-08T05:53:33.737Z,1394.00
2024-04-08T05:54:33.803Z,1418.00
2024-04-08T05:55:33.866Z,1446.00
2024-04-08T05:56:33.966Z,1462.00
2024-04-08T05:57:33.971Z,1481.00
2024-04-08T05:58:34.031Z,1504.00
2024-04-08T05:59:34.093Z,1528.00
2024-04-08T06:00:35.135Z,1581.00
2024-04-08T06:01:34.201Z,1604.00
2024-04-08T06:02:34.268Z,1624.00
2024-04-08T06:03:34.336Z,1648.00
2024-04-08T06:04:34.379Z,1664.00
2024-04-08T06:05:34.440Z,1689.00
2024-04-08T06:06:34.542Z,1702.00
2024-04-08T06:07:34.548Z,1720.00
2024-04-08T06:08:34.605Z,1760.00
2024-04-08T06:09:34.651Z,1777.00
2024-04-08T06:10:34.712Z,1795.00
2024-04-08T06:11:34.795Z,1811.00
2024-04-08T06:12:34.771Z,1836.00
2024-04-08T06:13:34.802Z,1839.00
2024-04-08T06:14:34.841Z,1729.00
2024-04-08T06:15:34.902Z,1571.00
2024-04-08T06:16:34.969Z,1687.00
2024-04-08T06:17:35.036Z,1561.00
2024-04-08T06:18:35.086Z,1701.00
2024-04-08T06:19:35.199Z,1248.00
2024-04-08T06:20:35.179Z,1054.00
2024-04-08T06:21:35.204Z,1050.00
2024-04-08T06:22:35.250Z,850.00
2024-04-08T06:23:35.333Z,884.00
2024-04-08T06:24:35.427Z,996.00
2024-04-08T06:25:35.476Z,1036.00
2024-04-08T06:26:35.542Z,1125.00
2024-04-08T06:27:35.582Z,1141.00
2024-04-08T06:28:35.635Z,1150.00
2024-04-08T06:29:35.768Z,1209.00
2024-04-08T06:30:35.700Z,1238.00
2024-04-08T06:31:36.619Z,1304.00
2024-04-08T06:32:35.834Z,1398.00
2024-04-08T06:33:35.763Z,1425.00
2024-04-08T06:34:36.662Z,1448.00
2024-04-08T06:35:35.902Z,1489.00
2024-04-08T06:36:37.547Z,1516.00
2024-04-08T06:37:35.923Z,1544.00
2024-04-08T06:38:36.016Z,1582.00
2024-04-08T06:39:36.048Z,1611.00
2024-04-08T06:40:37.077Z,1485.00
2024-04-08T06:41:36.647Z,1577.00
2024-04-08T06:42:36.042Z,1448.00
2024-04-08T06:43:36.042Z,1415.00
2024-04-08T06:44:36.198Z,1376.00
2024-04-08T06:45:36.062Z,1372.00
2024-04-08T06:46:36.048Z,1363.00
2024-04-08T06:47:36.134Z,1419.00
2024-04-08T06:48:36.059Z,1423.00
2024-04-08T06:49:36.628Z,1445.00
2024-04-08T06:50:36.158Z,1350.00
2024-04-08T06:51:36.192Z,1411.00
2024-04-08T06:52:36.234Z,1425.00
2024-04-08T06:53:36.416Z,1427.00
2024-04-08T06:54:36.393Z,1433.00
2024-04-08T06:55:36.429Z,1445.00
2024-04-08T06:56:36.674Z,1459.00
2024-04-08T06:57:36.542Z,1488.00
2024-04-08T06:58:36.590Z,1538.00
2024-04-08T06:59:36.718Z,1563.00
2024-04-08T07:00:37.222Z,1616.00
2024-04-08T07:01:36.796Z,1659.00
2024-04-08T07:02:36.821Z,1679.00
2024-04-08T07:03:36.810Z,1704.00
2024-04-08T07:04:36.834Z,1732.00
2024-04-08T07:05:36.886Z,1760.00
2024-04-08T07:06:36.917Z,1791.00
2024-04-08T07:07:36.960Z,1817.00
2024-04-08T07:08:37.027Z,1837.00
2024-04-08T07:09:37.007Z,1855.00
2024-04-08T07:10:37.028Z,1835.00
2024-04-08T07:11:37.652Z,1572.00
2024-04-08T07:12:37.099Z,1015.00
2024-04-08T07:13:38.054Z,964.00
2024-04-08T07:14:37.269Z,878.00
2024-04-08T07:15:37.802Z,790.00
2024-04-08T07:16:37.326Z,673.00
2024-04-08T07:17:37.558Z,634.00
2024-04-08T07:18:37.361Z,657.00
2024-04-08T07:19:37.517Z,670.00
2024-04-08T07:20:37.522Z,673.00
2024-04-08T07:21:37.552Z,676.00
2024-04-08T07:22:38.553Z,679.00
2024-04-08T07:23:37.655Z,682.00
2024-04-08T07:24:37.655Z,682.00
2024-04-08T07:25:38.710Z,678.00
2024-04-08T07:26:37.671Z,678.00
2024-04-08T07:27:37.651Z,677.00
2024-04-08T07:28:37.651Z,677.00
2024-04-08T07:29:37.678Z,676.00
2024-04-08T07:30:37.698Z,676.00
2024-04-08T07:31:37.690Z,677.00
2024-04-08T07:32:37.734Z,676.00
2024-04-08T07:33:37.654Z,678.00
2024-04-08T07:34:37.686Z,676.00
2024-04-08T07:35:37.780Z,680.00
2024-04-08T07:36:37.660Z,678.00
2024-04-08T07:37:37.688Z,676.00
2024-04-08T07:38:52.438Z,671.00
2024-04-08T07:39:40.657Z,674.00
2024-04-08T07:40:37.713Z,674.00
2024-04-08T07:41:37.714Z,675.00
2024-04-08T07:42:37.708Z,674.00
2024-04-08T07:43:38.569Z,672.00
2024-04-08T07:44:37.685Z,672.00
2024-04-08T07:45:38.652Z,674.00
2024-04-08T07:46:37.683Z,671.00
2024-04-08T07:47:37.729Z,670.00
2024-04-08T07:48:37.696Z,670.00
2024-04-08T07:49:37.713Z,672.00
2024-04-08T07:50:37.702Z,670.00
2024-04-08T07:51:37.762Z,672.00
2024-04-08T07:52:37.701Z,673.00
2024-04-08T07:53:38.198Z,672.00
2024-04-08T07:54:37.759Z,673.00
2024-04-08T07:55:39.162Z,675.00
2024-04-08T07:56:37.709Z,673.00
2024-04-08T07:57:37.714Z,674.00
2024-04-08T07:58:37.745Z,674.00
2024-04-08T07:59:38.677Z,675.00
2024-04-08T08:00:42.560Z,675.00
2024-04-08T08:01:38.710Z,674.00
2024-04-08T08:02:37.727Z,670.00
2024-04-08T08:03:37.718Z,667.00
2024-04-08T08:04:37.809Z,666.00
2024-04-08T08:05:37.717Z,665.00
2024-04-08T08:06:37.765Z,665.00
2024-04-08T08:07:37.711Z,663.00
2024-04-08T08:08:37.717Z,663.00
2024-04-08T08:09:37.712Z,663.00
2024-04-08T08:10:37.739Z,664.00
2024-04-08T08:11:37.773Z,667.00
2024-04-08T08:12:37.799Z,667.00
2024-04-08T08:13:37.916Z,668.00
2024-04-08T08:14:37.884Z,670.00
2024-04-08T08:15:37.921Z,670.00
2024-04-08T08:16:37.962Z,668.00
2024-04-08T08:17:38.037Z,669.00
2024-04-08T08:18:38.161Z,669.00
2024-04-08T08:19:38.112Z,670.00
2024-04-08T08:20:38.164Z,670.00
2024-04-08T08:21:38.200Z,670.00
2024-04-08T08:22:38.215Z,669.00
2024-04-08T08:23:38.274Z,668.00
2024-04-08T08:24:40.084Z,668.00
2024-04-08T08:25:38.356Z,666.00
2024-04-08T08:26:38.395Z,664.00
2024-04-08T08:27:38.429Z,664.00
2024-04-08T08:28:38.473Z,662.00
2024-04-08T08:29:38.532Z,660.00
2024-04-08T08:30:38.550Z,660.00
2024-04-08T08:31:38.652Z,659.00
2024-04-08T08:32:38.698Z,658.00
2024-04-08T08:33:38.690Z,658.00
2024-04-08T08:34:39.673Z,655.00
2024-04-08T08:35:38.811Z,653.00
2024-04-08T08:36:38.835Z,654.00
2024-04-08T08:37:40.900Z,656.00
2024-04-08T08:38:39.024Z,655.00
2024-04-08T08:39:38.902Z,653.00
2024-04-08T08:40:38.897Z,650.00
2024-04-08T08:41:38.997Z,650.00
2024-04-08T08:42:38.983Z,652.00
2024-04-08T08:43:38.888Z,652.00
2024-04-08T08:44:38.956Z,651.00
2024-04-08T08:45:38.895Z,651.00
2024-04-08T08:46:38.933Z,651.00
2024-04-08T08:47:38.975Z,651.00
2024-04-08T08:48:38.934Z,651.00
2024-04-08T08:49:38.905Z,653.00
2024-04-08T08:50:38.903Z,656.00
2024-04-08T08:51:38.906Z,657.00
2024-04-08T08:52:38.906Z,654.00
2024-04-08T08:53:38.915Z,653.00
2024-04-08T08:54:38.914Z,655.00
2024-04-08T08:55:38.960Z,652.00
2024-04-08T08:56:38.921Z,653.00
2024-04-08T08:57:38.938Z,654.00
2024-04-08T08:58:38.909Z,654.00
2024-04-08T08:59:38.917Z,657.00
2024-04-08T09:00:38.997Z,657.00
2024-04-08T09:01:38.919Z,657.00
2024-04-08T09:02:38.997Z,657.00
2024-04-08T09:03:38.918Z,657.00
2024-04-08T09:04:38.923Z,656.00
2024-04-08T09:05:38.916Z,654.00
2024-04-08T09:06:39.200Z,653.00
2024-04-08T09:07:39.051Z,653.00
2024-04-08T09:08:38.924Z,653.00
2024-04-08T09:09:38.940Z,652.00
2024-04-08T09:10:39.039Z,649.00
2024-04-08T09:11:39.805Z,647.00
2024-04-08T09:12:38.933Z,644.00
2024-04-08T09:13:38.941Z,643.00
2024-04-08T09:14:38.939Z,643.00
2024-04-08T09:15:39.607Z,641.00
2024-04-08T09:16:39.048Z,642.00
2024-04-08T09:17:39.288Z,644.00
2024-04-08T09:18:39.179Z,642.00
2024-04-08T09:19:39.245Z,640.00
2024-04-08T09:20:39.297Z,641.00
2024-04-08T09:21:41.701Z,577.00
2024-04-08T09:22:39.421Z,561.00
2024-04-08T09:23:39.487Z,590.00
2024-04-08T09:24:39.445Z,625.00
2024-04-08T09:25:39.464Z,668.00
2024-04-08T09:26:39.465Z,677.00
2024-04-08T09:27:40.245Z,690.00
2024-04-08T09:28:39.505Z,758.00
2024-04-08T09:29:39.550Z,792.00
2024-04-08T09:30:39.625Z,817.00
2024-04-08T09:31:39.769Z,842.00
2024-04-08T09:32:39.749Z,919.00
2024-04-08T09:33:39.885Z,937.00
2024-04-08T09:34:39.869Z,949.00
2024-04-08T09:35:40.830Z,999.00
2024-04-08T09:36:39.973Z,1028.00
2024-04-08T09:37:40.013Z,1045.00
2024-04-08T09:38:40.067Z,1066.00
2024-04-08T09:39:40.118Z,1089.00
2024-04-08T09:40:40.117Z,1109.00
2024-04-08T09:41:40.182Z,1136.00
2024-04-08T09:42:40.190Z,1158.00
2024-04-08T09:43:40.269Z,1176.00
2024-04-08T09:44:40.291Z,1189.00
2024-04-08T09:45:40.293Z,1201.00
2024-04-08T09:46:40.387Z,1177.00
2024-04-08T09:47:40.413Z,1110.00
2024-04-08T09:48:40.372Z,1124.00
2024-04-08T09:49:47.900Z,1120.00
2024-04-08T09:50:41.428Z,1126.00
2024-04-08T09:51:40.415Z,1137.00
2024-04-08T09:52:40.417Z,1162.00
2024-04-08T09:53:40.475Z,1189.00
2024-04-08T09:54:40.406Z,1209.00
2024-04-08T09:55:40.639Z,1247.00
2024-04-08T09:56:40.507Z,1265.00
2024-04-08T09:57:40.430Z,1289.00
2024-04-08T09:58:40.421Z,1314.00
2024-04-08T09:59:40.440Z,1337.00
2024-04-08T10:00:40.434Z,1350.00
2024-04-08T10:01:40.432Z,1372.00
2024-04-08T10:02:40.441Z,1412.00
2024-04-08T10:03:40.409Z,1425.00
2024-04-08T10:04:40.416Z,1437.00
2024-04-08T10:05:40.420Z,1445.00
2024-04-08T10:06:40.427Z,1452.00
2024-04-08T10:07:40.417Z,1455.00
2024-04-08T10:08:40.408Z,1466.00
2024-04-08T10:09:40.446Z,1502.00
2024-04-08T10:10:40.410Z,1520.00
2024-04-08T10:11:40.467Z,1522.00
2024-04-08T10:12:40.518Z,1405.00
2024-04-08T10:13:40.449Z,1372.00
2024-04-08T10:14:40.433Z,1398.00
2024-04-08T10:15:40.427Z,1413.00
2024-04-08T10:16:40.425Z,1461.00
2024-04-08T10:17:40.500Z,1430.00
2024-04-08T10:18:40.466Z,1425.00
2024-04-08T10:19:40.437Z,1471.00
2024-04-08T10:20:40.448Z,1512.00
2024-04-08T10:21:40.448Z,1535.00
2024-04-08T10:22:40.432Z,1620.00
2024-04-08T10:24:41.487Z,1684.00
2024-04-08T10:25:40.497Z,1734.00
2024-04-08T10:26:40.440Z,1769.00
2024-04-08T10:27:40.460Z,1733.00
2024-04-08T10:28:40.441Z,1801.00
2024-04-08T10:29:41.211Z,1820.00
2024-04-08T10:30:40.453Z,1846.00
2024-04-08T10:31:40.444Z,1851.00
2024-04-08T10:32:40.486Z,1844.00
2024-04-08T10:33:40.571Z,1846.00
2024-04-08T10:34:41.354Z,1835.00
2024-04-08T10:35:40.444Z,1799.00
2024-04-08T10:36:40.479Z,1777.00
2024-04-08T10:37:40.445Z,1759.00
2024-04-08T10:38:40.443Z,1751.00
2024-04-08T10:39:40.541Z,1730.00
2024-04-08T10:40:40.553Z,1720.00
2024-04-08T10:41:40.680Z,1323.00
2024-04-08T10:42:40.680Z,1067.00
2024-04-08T10:43:40.813Z,1008.00
2024-04-08T10:44:40.817Z,1006.00
2024-04-08T10:45:41.804Z,891.00
2024-04-08T10:46:40.812Z,867.00
2024-04-08T10:47:40.858Z,882.00
2024-04-08T10:48:40.832Z,813.00
2024-04-08T10:49:40.817Z,834.00
2024-04-08T10:50:40.879Z,706.00
2024-04-08T10:51:41.030Z,752.00
2024-04-08T10:52:40.811Z,625.00
2024-04-08T10:53:41.782Z,674.00
2024-04-08T10:54:40.940Z,699.00
2024-04-08T10:55:41.006Z,747.00
2024-04-08T10:56:41.099Z,764.00
2024-04-08T10:57:41.141Z,785.00
2024-04-08T10:58:41.204Z,833.00
2024-04-08T10:59:41.298Z,837.00
2024-04-08T11:00:41.364Z,757.00
2024-04-08T11:01:41.396Z,786.00
2024-04-08T11:02:41.548Z,800.00
2024-04-08T11:03:41.502Z,807.00
2024-04-08T11:04:41.561Z,834.00
2024-04-08T11:05:41.511Z,822.00
2024-04-08T11:06:41.518Z,820.00
2024-04-08T11:07:44.316Z,813.00
2024-04-08T11:08:41.501Z,809.00
2024-04-08T11:09:42.225Z,808.00
2024-04-08T11:10:41.603Z,810.00
2024-04-08T11:11:41.517Z,810.00
2024-04-08T11:12:41.507Z,810.00
2024-04-08T11:13:42.234Z,809.00
2024-04-08T11:14:41.561Z,808.00
2024-04-08T11:15:41.561Z,808.00
2024-04-08T11:16:42.148Z,807.00
2024-04-08T11:17:41.516Z,808.00
2024-04-08T11:18:41.640Z,808.00
2024-04-08T11:19:41.522Z,807.00
2024-04-08T11:20:41.525Z,805.00
2024-04-08T11:21:41.518Z,804.00
2024-04-08T11:22:41.558Z,801.00
2024-04-08T11:23:41.523Z,801.00
2024-04-08T11:24:41.526Z,799.00
2024-04-08T11:25:41.531Z,798.00
2024-04-08T11:26:52.569Z,795.00
2024-04-08T11:27:42.594Z,796.00
2024-04-08T11:28:41.526Z,798.00
2024-04-08T11:29:41.529Z,800.00
2024-04-08T11:30:43.901Z,797.00
2024-04-08T11:31:41.670Z,794.00
2024-04-08T11:32:41.753Z,794.00
2024-04-08T11:33:41.930Z,791.00
2024-04-08T11:34:41.852Z,793.00
2024-04-08T11:35:41.903Z,795.00
2024-04-08T11:36:42.089Z,791.00
2024-04-08T11:37:45.338Z,791.00
2024-04-08T11:38:42.034Z,791.00
2024-04-08T11:39:42.088Z,791.00
2024-04-08T11:40:42.030Z,792.00
2024-04-08T11:41:42.056Z,791.00
2024-04-08T11:42:42.051Z,793.00
2024-04-08T11:43:42.399Z,791.00
2024-04-08T11:44:42.036Z,792.00
2024-04-08T11:45:42.242Z,796.00
2024-04-08T11:46:42.173Z,797.00
2024-04-08T11:47:42.050Z,798.00
2024-04-08T11:48:42.070Z,797.00
2024-04-08T11:49:43.282Z,799.00
2024-04-08T11:50:42.032Z,800.00
2024-04-08T11:51:42.255Z,798.00
2024-04-08T11:52:42.040Z,796.00
2024-04-08T11:53:42.048Z,793.00
2024-04-08T11:54:50.018Z,795.00
2024-04-08T11:55:43.058Z,794.00
2024-04-08T11:56:42.044Z,795.00
2024-04-08T11:57:42.296Z,793.00
2024-04-08T11:58:42.039Z,794.00
2024-04-08T11:59:42.045Z,796.00
2024-04-08T12:00:42.076Z,795.00
2024-04-08T12:01:44.348Z,796.00
2024-04-08T12:02:42.202Z,796.00
2024-04-08T12:03:42.194Z,800.00
2024-04-08T12:04:42.249Z,798.00
2024-04-08T12:05:42.305Z,799.00
2024-04-08T12:06:42.368Z,797.00
2024-04-08T12:07:43.582Z,797.00
2024-04-08T12:08:42.549Z,797.00
2024-04-08T12:09:42.510Z,796.00
2024-04-08T12:10:42.562Z,795.00
2024-04-08T12:11:42.735Z,795.00
2024-04-08T12:12:42.737Z,797.00
2024-04-08T12:13:44.090Z,797.00
2024-04-08T12:14:42.799Z,798.00
2024-04-08T12:15:45.756Z,799.00
2024-04-08T12:16:42.907Z,796.00
2024-04-08T12:17:43.784Z,795.00
2024-04-08T12:18:42.845Z,797.00
2024-04-08T12:19:45.625Z,796.00
2024-04-08T12:20:42.816Z,798.00
2024-04-08T12:21:42.813Z,801.00
2024-04-08T12:22:42.812Z,802.00
2024-04-08T12:23:42.819Z,802.00
2024-04-08T12:24:42.822Z,803.00